createdAt,value
2023-10-10T00:03:35.028Z,99.90
2023-10-10T00:08:41.823Z,99.90
2023-10-10T00:13:48.964Z,99.90
2023-10-10T00:18:57.133Z,99.90
2023-10-10T00:24:00.836Z,99.90
2023-10-10T00:29:08.071Z,99.90
2023-10-10T00:34:16.076Z,99.90
2023-10-10T00:39:32.408Z,99.90
2023-10-10T00:44:39.483Z,99.90
2023-10-10T00:49:46.837Z,99.90
2023-10-10T00:54:51.706Z,99.90
2023-10-10T00:59:56.152Z,99.90
2023-10-10T01:05:06.454Z,99.90
2023-10-10T01:10:14.214Z,99.90
2023-10-10T01:15:26.004Z,99.90
2023-10-10T01:20:36.684Z,99.90
2023-10-10T01:25:46.693Z,99.90
2023-10-10T01:31:03.312Z,99.90
2023-10-10T01:36:13.434Z,99.90
2023-10-10T01:41:23.648Z,99.90
2023-10-10T01:46:30.881Z,99.90
2023-10-10T01:51:44.128Z,99.90
2023-10-10T01:56:47.977Z,99.90
2023-10-10T02:01:53.619Z,99.90
2023-10-10T02:07:05.704Z,99.90
2023-10-10T02:12:13.961Z,99.90
2023-10-10T02:17:24.435Z,99.90
2023-10-10T02:22:49.110Z,99.90
2023-10-10T02:27:56.677Z,99.90
2023-10-10T02:32:59.886Z,99.90
2023-10-10T02:38:08.488Z,99.90
2023-10-10T02:43:20.585Z,99.90
2023-10-10T02:48:24.896Z,99.90
2023-10-10T02:53:33.916Z,99.90
2023-10-10T02:58:40.029Z,99.90
2023-10-10T03:03:43.342Z,99.90
2023-10-10T03:08:53.593Z,99.90
2023-10-10T03:14:02.352Z,99.90
2023-10-10T03:19:27.944Z,99.90
2023-10-10T03:24:52.853Z,99.90
2023-10-10T03:30:14.808Z,99.90
2023-10-10T03:35:34.684Z,99.90
2023-10-10T03:41:08.911Z,99.90
2023-10-10T03:46:31.469Z,99.90
2023-10-10T03:51:50.500Z,99.90
2023-10-10T03:57:23.108Z,99.90
2023-10-10T04:02:43.039Z,99.90
2023-10-10T04:08:08.120Z,99.90
2023-10-10T04:13:29.885Z,99.90
2023-10-10T04:18:50.155Z,99.90
2023-10-10T04:24:10.120Z,99.90
2023-10-10T04:29:32.080Z,99.90
2023-10-10T04:34:52.561Z,99.90
2023-10-10T04:40:12.617Z,99.90
2023-10-10T04:45:34.500Z,99.90
2023-10-10T04:50:54.583Z,99.90
2023-10-10T04:56:16.609Z,99.90
2023-10-10T05:01:38.410Z,99.90
2023-10-10T05:06:58.231Z,99.90
2023-10-10T05:12:17.646Z,99.90
2023-10-10T05:17:38.517Z,99.90
2023-10-10T05:23:07.632Z,99.90
2023-10-10T05:28:12.156Z,99.90
2023-10-10T05:33:21.092Z,99.90
2023-10-10T05:38:24.624Z,99.90
2023-10-10T05:43:35.144Z,99.90
2023-10-10T05:48:40.245Z,99.90
2023-10-10T05:53:42.394Z,99.90
2023-10-10T05:58:46.278Z,99.90
2023-10-10T06:03:52.881Z,99.90
2023-10-10T06:09:01.849Z,99.90
2023-10-10T06:14:05.539Z,99.90
2023-10-10T06:19:18.778Z,99.90
2023-10-10T06:24:20.930Z,99.90
2023-10-10T06:29:25.753Z,99.90
2023-10-10T06:34:36.194Z,99.90
2023-10-10T06:39:55.695Z,99.90
2023-10-10T06:45:03.875Z,99.90
2023-10-10T06:50:12.896Z,99.90
2023-10-10T06:55:22.417Z,99.90
2023-10-10T07:00:41.805Z,99.90
2023-10-10T07:05:45.851Z,99.90
2023-10-10T07:10:48.339Z,99.90
2023-10-10T07:15:53.936Z,99.90
2023-10-10T07:21:09.999Z,99.90
2023-10-10T07:26:21.715Z,99.90
2023-10-10T07:31:27.470Z,99.90
2023-10-10T07:36:30.897Z,99.90
2023-10-10T07:41:35.791Z,99.90
2023-10-10T07:46:38.595Z,99.90
2023-10-10T07:51:51.766Z,99.90
2023-10-10T07:56:56.469Z,99.90
2023-10-10T08:02:01.313Z,99.90
2023-10-10T08:07:06.171Z,99.90
2023-10-10T08:12:08.954Z,99.90
2023-10-10T08:17:21.193Z,99.90
2023-10-10T08:22:27.856Z,99.90
2023-10-10T08:27:31.835Z,99.90
2023-10-10T08:32:33.741Z,99.90
2023-10-10T08:37:37.955Z,99.90
2023-10-10T08:42:42.803Z,99.90
2023-10-10T08:47:45.919Z,99.90
2023-10-10T08:52:51.622Z,99.90
2023-10-10T08:57:57.639Z,99.90
2023-10-10T09:03:00.728Z,99.90
2023-10-10T09:08:16.276Z,99.90
2023-10-10T09:13:20.574Z,99.90
2023-10-10T09:18:25.029Z,99.90
2023-10-10T09:23:34.345Z,99.90
2023-10-10T09:28:46.778Z,99.90
2023-10-10T09:33:48.836Z,99.90
2023-10-10T09:38:57.363Z,99.90
2023-10-10T09:44:20.779Z,99.90
2023-10-10T09:49:36.690Z,99.90
2023-10-10T09:54:43.935Z,99.90
2023-10-10T09:59:54.435Z,99.90
2023-10-10T10:04:57.286Z,99.90
2023-10-10T10:10:34.891Z,99.90
2023-10-10T10:15:51.074Z,99.90
2023-10-10T10:21:06.029Z,99.90
2023-10-10T10:26:12.610Z,99.90
2023-10-10T10:31:29.408Z,99.90
2023-10-10T10:36:31.719Z,99.90
2023-10-10T10:41:53.149Z,99.90
2023-10-10T10:46:58.143Z,99.90
2023-10-10T10:52:20.554Z,99.90
2023-10-10T10:57:47.170Z,99.90
2023-10-10T11:03:02.225Z,99.90
2023-10-10T11:08:13.254Z,99.90
2023-10-10T11:13:18.665Z,99.90
2023-10-10T11:18:37.093Z,99.90
2023-10-10T11:23:44.455Z,99.90
2023-10-10T11:28:51.636Z,99.90
2023-10-10T11:34:12.052Z,99.90
2023-10-10T11:39:35.724Z,99.90
2023-10-10T11:44:43.751Z,99.90
2023-10-10T11:49:48.580Z,99.90
2023-10-10T11:54:52.266Z,99.90
2023-10-10T11:59:55.619Z,99.90
2023-10-10T12:04:57.633Z,99.90
2023-10-10T12:10:08.850Z,99.90
2023-10-10T12:15:16.525Z,99.90
2023-10-10T12:20:18.968Z,99.90
2023-10-10T12:25:22.657Z,99.90
2023-10-10T12:30:26.781Z,99.90
2023-10-10T12:35:29.061Z,99.90
2023-10-10T12:40:34.794Z,99.90
2023-10-10T12:45:38.664Z,99.90
2023-10-10T12:50:41.138Z,99.90
2023-10-10T12:55:50.517Z,99.90
2023-10-10T13:00:55.190Z,99.90
2023-10-10T13:06:01.781Z,99.90
2023-10-10T13:11:06.122Z,99.90
2023-10-10T13:16:23.904Z,99.90
2023-10-10T13:21:27.355Z,99.90
2023-10-10T13:26:30.020Z,99.50
2023-10-10T13:31:33.647Z,99.40
2023-10-10T13:36:37.385Z,98.90
2023-10-10T13:41:40.339Z,99.20
2023-10-10T13:46:43.995Z,97.60
2023-10-10T13:51:46.321Z,99.10
2023-10-10T13:56:48.681Z,99.60
2023-10-10T14:01:55.432Z,99.90
2023-10-10T14:07:02.538Z,99.90
2023-10-10T14:12:08.602Z,99.90
2023-10-10T14:17:14.630Z,99.10
2023-10-10T14:22:25.149Z,98.90
2023-10-10T14:27:29.663Z,99.10
2023-10-10T14:32:38.715Z,99.90
2023-10-10T14:37:54.139Z,97.40
2023-10-10T14:43:08.319Z,96.00
2023-10-10T14:48:13.251Z,97.30
2023-10-10T14:53:17.281Z,97.80
2023-10-10T14:58:23.857Z,98.80
2023-10-10T15:03:29.133Z,98.50
2023-10-10T15:08:32.747Z,99.70
2023-10-10T15:13:36.794Z,99.90
2023-10-10T15:18:43.541Z,99.90
2023-10-10T15:23:48.003Z,99.90
2023-10-10T15:28:53.630Z,99.90
2023-10-10T15:33:59.156Z,99.90
2023-10-10T15:39:05.899Z,99.90
2023-10-10T15:44:09.739Z,99.90
2023-10-10T15:54:23.534Z,99.90
2023-10-10T15:59:26.743Z,99.90
2023-10-10T16:04:34.002Z,99.90
2023-10-10T16:09:37.203Z,99.90
2023-10-10T16:14:40.323Z,99.90
2023-10-10T16:19:46.236Z,99.90
2023-10-10T16:24:54.005Z,99.90
2023-10-10T16:29:57.348Z,99.90
2023-10-10T16:35:06.397Z,99.90
2023-10-10T16:40:11.963Z,99.90
2023-10-10T16:45:14.354Z,99.90
2023-10-10T16:50:22.803Z,99.90
2023-10-10T16:55:28.120Z,99.90
2023-10-10T17:00:33.363Z,99.90
2023-10-10T17:05:42.647Z,99.90
2023-10-10T17:10:48.412Z,99.90
2023-10-10T17:15:53.040Z,99.90
2023-10-10T17:21:04.639Z,99.90
2023-10-10T17:26:13.046Z,99.90
2023-10-10T17:31:22.510Z,99.90
2023-10-10T17:36:30.118Z,99.90
2023-10-10T17:41:38.309Z,99.90
2023-10-10T17:46:45.676Z,99.90
2023-10-10T17:51:56.408Z,99.90
2023-10-10T17:57:01.615Z,99.90
2023-10-10T18:02:10.404Z,99.90
2023-10-10T18:07:25.269Z,99.90
2023-10-10T18:12:31.437Z,99.90
2023-10-10T18:17:37.664Z,99.90
2023-10-10T18:22:47.052Z,99.90
2023-10-10T18:27:51.092Z,99.90
2023-10-10T18:32:54.187Z,99.90
2023-10-10T18:37:59.302Z,99.90
2023-10-10T18:43:06.335Z,99.90
2023-10-10T18:48:13.423Z,99.90
2023-10-10T18:53:17.778Z,99.90
2023-10-10T18:58:20.771Z,99.90
2023-10-10T19:03:23.562Z,99.90
2023-10-10T19:08:29.697Z,99.90
2023-10-10T19:13:35.904Z,99.90
2023-10-10T19:18:43.954Z,99.90
2023-10-10T19:23:56.976Z,99.90
2023-10-10T19:29:05.682Z,99.90
2023-10-10T19:34:12.078Z,99.90
2023-10-10T19:39:23.393Z,99.90
2023-10-10T19:44:27.403Z,99.90
2023-10-10T19:49:37.056Z,99.90
2023-10-10T19:54:42.560Z,99.90
2023-10-10T19:59:48.940Z,99.90
2023-10-10T20:04:52.682Z,99.90
2023-10-10T20:09:57.283Z,99.90
2023-10-10T20:15:01.658Z,99.90
2023-10-10T20:20:07.039Z,99.90
2023-10-10T20:25:13.698Z,99.90
2023-10-10T20:30:19.715Z,99.90
2023-10-10T20:35:26.935Z,99.90
2023-10-10T20:40:33.347Z,99.90
2023-10-10T20:45:36.634Z,99.90
2023-10-10T20:50:42.702Z,99.90
2023-10-10T20:55:49.226Z,99.90
2023-10-10T21:00:52.617Z,99.90
2023-10-10T21:05:55.014Z,99.90
2023-10-10T21:11:05.189Z,99.90
2023-10-10T21:16:16.805Z,99.90
2023-10-10T21:21:23.190Z,99.90
2023-10-10T21:26:27.183Z,99.90
2023-10-10T21:31:30.967Z,99.90
2023-10-10T21:36:35.516Z,99.90
2023-10-10T21:41:39.450Z,99.90
2023-10-10T21:46:43.077Z,99.90
2023-10-10T21:51:45.786Z,99.90
2023-10-10T21:56:50.151Z,99.90
2023-10-10T22:01:54.219Z,99.90
2023-10-10T22:06:57.235Z,99.90
2023-10-10T22:12:02.818Z,99.90
2023-10-10T22:17:06.722Z,99.90
2023-10-10T22:22:09.238Z,99.90
2023-10-10T22:27:15.203Z,99.90
2023-10-10T22:32:17.882Z,99.90
2023-10-10T22:37:21.770Z,99.90
2023-10-10T22:42:25.796Z,99.90
2023-10-10T22:47:30.540Z,99.90
2023-10-10T22:52:35.757Z,99.90
2023-10-10T22:57:41.713Z,99.90
2023-10-10T23:02:45.990Z,99.90
2023-10-10T23:07:50.028Z,99.90
2023-10-10T23:12:54.696Z,99.90
2023-10-10T23:17:59.418Z,99.90
2023-10-10T23:23:04.292Z,99.90
2023-10-10T23:28:10.006Z,99.90
2023-10-10T23:33:14.140Z,99.90
2023-10-10T23:38:16.455Z,99.90
2023-10-10T23:43:23.126Z,99.90
2023-10-10T23:48:31.386Z,99.90
2023-10-10T23:53:38.398Z,99.90
2023-10-10T23:58:44.436Z,99.90
